Fort Caswell, North Carolina
Current Conditions -  °F | °C
As of 10:55 AM on Saturday 25 Oct 2014 (Local Time) from KSUT Reporting Station
Clear Clear  
Wind Chill: 65°   Ceiling: Unl
Heat Index: 65°   Visibility: 10mi
Dew Point: 50°   Wind: 5mph
Humidity: 58%   Direction: 320°NW
Pressure: 30"   Gusts: NA
Location:  33.9216°N, 78.1244°W
Report Text: KSUT 251455Z AUTO 32004KT 10SM CLR 18/10 A3000 RMK AO2 T01830098
Loading
Personal Weather Stations






























Interactive Weather Map
Tropical Storm Tracking
New forecast layout! Learn more

10-Day Weather Forecast

Advertisements
Track Severe Weather on mobile